Time;durP1;ratioP1;P1;durP2;ratioP2;P2;SDS_P1;SDS_P2;PMS_P1;PMS_P2;Temp;Humidity;BMP_temperature;BMP_pressure;BME280_temperature;BME280_humidity;BME280_pressure;Samples;Min_cycle;Max_cycle;Signal;HPM_P1;HPM_P2
2022/01/18 00:00:46;;;;;;;19.02;3.85;;;-2.00;99.90;;;;;;5106785;28;20410;-67
2022/01/18 00:03:11;;;;;;;18.45;2.60;;;-2.00;99.90;;;;;;5102591;28;20572;-67
2022/01/18 00:05:37;;;;;;;13.80;2.55;;;-2.00;99.90;;;;;;5106586;28;20036;-67
2022/01/18 00:08:03;;;;;;;12.65;2.28;;;-2.00;99.90;;;;;;5087933;28;20017;-67
2022/01/18 00:10:31;;;;;;;12.85;2.25;;;-2.00;99.90;;;;;;5106287;28;20538;-67
2022/01/18 00:18:20;;;;;;;12.70;2.42;;;-2.10;99.90;;;;;;5100571;28;20086;-67
2022/01/18 00:21:15;;;;;;;11.45;1.90;;;-2.10;99.90;;;;;;5105660;28;20122;-66
2022/01/18 00:23:41;;;;;;;16.25;2.85;;;-2.10;99.90;;;;;;5098225;28;20031;-66
2022/01/18 00:26:09;;;;;;;14.07;2.30;;;-2.10;99.90;;;;;;5086351;28;20120;-67
2022/01/18 00:28:37;;;;;;;12.98;1.90;;;-2.10;99.90;;;;;;5089647;28;20087;-66
2022/01/18 00:36:25;;;;;;;17.50;3.17;;;-2.00;99.90;;;;;;5095700;28;20092;-67
2022/01/18 00:38:51;;;;;;;21.48;2.85;;;-2.00;99.90;;;;;;5100743;28;20038;-67
2022/01/18 00:41:18;;;;;;;14.57;2.88;;;-2.00;99.90;;;;;;5105349;28;20420;-68
2022/01/18 00:43:44;;;;;;;17.92;2.55;;;-2.10;99.90;;;;;;5077286;28;20039;-67
2022/01/18 00:46:12;;;;;;;12.80;2.15;;;-2.10;99.90;;;;;;5104914;28;20466;-67
2022/01/18 00:48:39;;;;;;;17.02;2.20;;;-2.20;99.90;;;;;;5103772;28;20032;-67
2022/01/18 00:51:08;;;;;;;15.85;2.20;;;-2.30;99.90;;;;;;5103660;28;20030;-66
2022/01/18 00:53:36;;;;;;;23.15;2.55;;;-2.30;99.90;;;;;;5091959;28;20038;-66
2022/01/18 00:56:18;;;;;;;19.80;2.25;;;-2.30;99.90;;;;;;5100618;28;20059;-66
2022/01/18 00:58:47;;;;;;;19.48;2.80;;;-2.40;99.90;;;;;;5093154;28;20042;-67
2022/01/18 01:01:13;;;;;;;17.98;2.35;;;-2.40;99.90;;;;;;5094178;28;20130;-69
2022/01/18 01:03:39;;;;;;;21.65;2.60;;;-2.40;99.90;;;;;;5105236;28;20038;-66
2022/01/18 01:06:06;;;;;;;15.27;3.33;;;-2.40;99.90;;;;;;5108735;28;20019;-66
2022/01/18 01:08:34;;;;;;;9.30;2.13;;;-2.40;99.90;;;;;;5106907;28;20028;-66
2022/01/18 01:11:00;;;;;;;12.35;2.45;;;-2.40;99.90;;;;;;5109341;28;20020;-66
2022/01/18 01:13:27;;;;;;;14.20;2.25;;;-2.40;99.90;;;;;;5106549;28;20486;-67
2022/01/18 01:18:48;;;;;;;18.23;2.78;;;-2.30;99.90;;;;;;5094650;28;20399;-66
2022/01/18 01:32:41;;;;;;;21.95;2.35;;;-2.40;99.90;;;;;;5088949;28;20079;-66
2022/01/18 01:43:25;;;;;;;20.45;2.40;;;-2.40;99.90;;;;;;5096513;28;20121;-66
2022/01/18 01:45:51;;;;;;;23.92;3.25;;;-2.30;99.90;;;;;;5088353;28;20028;-66
2022/01/18 01:48:19;;;;;;;15.73;2.10;;;-2.40;99.90;;;;;;5106244;28;20042;-66
2022/01/18 01:50:53;;;;;;;14.23;2.00;;;-2.40;99.90;;;;;;5108488;28;20024;-66
2022/01/18 01:53:20;;;;;;;15.43;3.10;;;-2.40;99.90;;;;;;5096739;28;20044;-66
2022/01/18 01:55:46;;;;;;;23.42;2.40;;;-2.40;99.90;;;;;;5112532;28;20023;-66
2022/01/18 01:58:12;;;;;;;15.90;2.40;;;-2.50;99.90;;;;;;5110558;28;20546;-66
2022/01/18 02:00:45;;;;;;;13.98;2.50;;;-2.40;99.90;;;;;;5112654;28;20552;-66
2022/01/18 02:03:12;;;;;;;12.95;2.15;;;-2.40;99.90;;;;;;5095729;28;20015;-67
2022/01/18 02:05:38;;;;;;;12.32;2.05;;;-2.40;99.90;;;;;;5112780;28;20208;-66
2022/01/18 02:08:07;;;;;;;19.13;4.30;;;-2.30;99.90;;;;;;5110422;28;20223;-67
2022/01/18 02:10:34;;;;;;;16.77;2.10;;;-2.30;99.90;;;;;;5110437;28;20019;-66
2022/01/18 02:12:59;;;;;;;18.48;1.98;;;-2.40;99.90;;;;;;5111673;28;20023;-66
2022/01/18 02:15:24;;;;;;;15.65;2.15;;;-2.40;99.90;;;;;;5110022;28;20031;-66
2022/01/18 02:23:22;;;;;;;17.73;1.92;;;-2.60;99.90;;;;;;5092323;28;20063;-66
2022/01/18 02:25:47;;;;;;;16.17;2.90;;;-2.60;99.90;;;;;;5109670;28;20487;-66
2022/01/18 02:28:16;;;;;;;16.35;2.30;;;-2.50;99.90;;;;;;5112171;28;20116;-67
2022/01/18 02:30:41;;;;;;;14.18;2.63;;;-2.60;99.90;;;;;;5109966;28;20473;-66
2022/01/18 02:33:07;;;;;;;17.85;2.75;;;-2.60;99.90;;;;;;5112260;28;20023;-66
2022/01/18 02:35:34;;;;;;;24.80;2.80;;;-2.60;99.90;;;;;;5109972;28;20020;-66
2022/01/18 02:38:00;;;;;;;25.75;3.72;;;-2.50;99.90;;;;;;5111723;28;20434;-66
2022/01/18 02:40:25;;;;;;;17.73;2.97;;;-2.50;99.90;;;;;;5109902;28;20042;-66
2022/01/18 02:43:00;;;;;;;15.68;2.22;;;-2.50;99.90;;;;;;5104792;28;20027;-66
2022/01/18 02:45:26;;;;;;;21.65;2.60;;;-2.60;99.90;;;;;;5096838;28;20022;-66
2022/01/18 02:47:52;;;;;;;19.30;3.70;;;-2.60;99.90;;;;;;5112247;28;20032;-67
2022/01/18 02:50:23;;;;;;;23.00;2.50;;;-2.70;99.90;;;;;;5109421;28;20429;-66
2022/01/18 02:52:49;;;;;;;14.55;2.65;;;-2.70;99.90;;;;;;5111794;28;20028;-66
2022/01/18 02:55:15;;;;;;;10.90;1.90;;;-2.80;99.90;;;;;;5109836;28;20046;-66
2022/01/18 02:58:01;;;;;;;23.63;3.67;;;-2.80;99.90;;;;;;5111487;28;20062;-66
2022/01/18 03:00:43;;;;;;;;;;;-2.80;99.90;;;;;;5096996;28;20037;-60
2022/01/18 03:03:16;;;;;;;11.77;2.08;;;-2.70;99.90;;;;;;5110913;28;19903;-61
2022/01/18 03:05:45;;;;;;;12.68;2.05;;;-2.60;99.90;;;;;;5098709;28;20024;-61
2022/01/18 03:08:12;;;;;;;22.48;3.13;;;-2.60;99.90;;;;;;5111305;28;20506;-61
2022/01/18 03:10:39;;;;;;;8.63;2.22;;;-2.60;99.90;;;;;;5109049;28;20422;-61
2022/01/18 03:13:06;;;;;;;12.93;2.00;;;-2.60;99.90;;;;;;5111271;28;20030;-61
2022/01/18 03:15:33;;;;;;;29.00;2.72;;;-2.60;99.90;;;;;;5109153;28;20033;-61
2022/01/18 03:18:00;;;;;;;20.55;2.15;;;-2.60;99.90;;;;;;5110594;28;20115;-61
2022/01/18 03:20:26;;;;;;;28.38;3.30;;;-2.60;99.90;;;;;;5109551;28;20043;-61
2022/01/18 03:22:52;;;;;;;13.60;2.58;;;-2.60;99.90;;;;;;5111316;28;20031;-61
2022/01/18 03:25:38;;;;;;;25.90;2.50;;;-2.60;99.90;;;;;;5108797;28;20038;-61
2022/01/18 03:28:06;;;;;;;23.10;2.83;;;-2.70;99.90;;;;;;5111261;28;20116;-61
2022/01/18 03:30:38;;;;;;;35.17;3.22;;;-2.70;99.90;;;;;;5108920;28;20529;-61
2022/01/18 03:33:06;;;;;;;15.00;2.08;;;-2.70;99.90;;;;;;5090727;28;20099;-61
2022/01/18 03:35:33;;;;;;;16.13;2.65;;;-2.70;99.90;;;;;;5108586;28;20126;-60
2022/01/18 03:37:58;;;;;;;15.85;2.55;;;-2.70;99.90;;;;;;5110658;28;20365;-61
2022/01/18 03:40:24;;;;;;;22.70;2.72;;;-2.70;99.90;;;;;;5091721;28;20098;-61
2022/01/18 03:42:51;;;;;;;16.88;2.47;;;-2.70;99.90;;;;;;5106152;28;20031;-61
2022/01/18 03:45:28;;;;;;;21.30;3.28;;;-2.70;99.90;;;;;;5109113;28;20035;-61
2022/01/18 03:47:56;;;;;;;12.82;2.80;;;-2.70;99.90;;;;;;5110919;28;20523;-61
2022/01/18 03:50:22;;;;;;;15.32;3.00;;;-2.60;99.90;;;;;;5093543;28;20024;-61
2022/01/18 03:52:48;;;;;;;9.77;2.60;;;-2.70;99.90;;;;;;5109932;28;20027;-61
2022/01/18 03:55:16;;;;;;;21.63;2.88;;;-2.60;99.90;;;;;;5108910;28;20111;-62
2022/01/18 03:57:41;;;;;;;18.25;2.53;;;-2.60;99.90;;;;;;5110436;28;20024;-61
2022/01/18 04:00:11;;;;;;;17.85;2.92;;;-2.70;99.90;;;;;;5095524;28;20395;-61
2022/01/18 04:02:36;;;;;;;12.13;2.28;;;-2.70;99.90;;;;;;5110175;28;20077;-61
2022/01/18 04:05:03;;;;;;;24.42;2.70;;;-2.60;99.90;;;;;;5108304;28;20035;-61
2022/01/18 04:07:29;;;;;;;21.90;3.58;;;-2.60;99.90;;;;;;5110123;28;20043;-62
2022/01/18 04:09:54;;;;;;;11.98;2.78;;;-2.60;99.90;;;;;;5108329;28;20320;-63
2022/01/18 04:12:20;;;;;;;18.42;3.03;;;-2.40;99.90;;;;;;5109971;28;20402;-62
2022/01/18 04:14:45;;;;;;;11.45;2.47;;;-2.30;99.90;;;;;;5105858;28;20055;-61
2022/01/18 04:27:50;;;;;;;17.33;2.33;;;-1.70;99.90;;;;;;5109953;28;20084;-61
2022/01/18 04:30:16;;;;;;;16.67;2.55;;;-1.70;99.90;;;;;;5107660;28;20240;-62
2022/01/18 04:32:42;;;;;;;15.00;2.78;;;-1.70;99.90;;;;;;5109428;28;20106;-61
2022/01/18 04:35:08;;;;;;;20.58;2.65;;;-1.70;99.90;;;;;;5107685;28;20119;-61
2022/01/18 04:37:33;;;;;;;14.95;2.47;;;-1.60;99.90;;;;;;5110131;28;20146;-61
2022/01/18 04:40:01;;;;;;;17.67;2.17;;;-1.50;99.90;;;;;;5107466;28;20554;-61
2022/01/18 04:42:46;;;;;;;21.27;3.28;;;-1.50;99.90;;;;;;5105754;28;20037;-61
2022/01/18 04:50:39;;;;;;;13.45;2.38;;;-1.50;99.90;;;;;;5099082;28;20065;-61
2022/01/18 04:53:05;;;;;;;25.10;2.88;;;-1.70;99.90;;;;;;5109361;28;20047;-61
2022/01/18 04:55:32;;;;;;;24.58;3.47;;;-1.80;99.90;;;;;;5107545;28;20035;-61
2022/01/18 04:57:58;;;;;;;21.38;3.72;;;-1.90;99.90;;;;;;5109480;28;20039;-61
2022/01/18 05:00:25;;;;;;;11.27;2.42;;;-2.00;99.90;;;;;;5107114;28;20036;-61
2022/01/18 05:02:51;;;;;;;25.45;2.63;;;-2.10;99.90;;;;;;5109223;28;20034;-61
2022/01/18 05:05:24;;;;;;;12.85;2.40;;;-2.10;99.90;;;;;;5107324;28;20063;-61
2022/01/18 05:07:52;;;;;;;15.85;2.60;;;-2.20;99.90;;;;;;5109393;28;20118;-61
2022/01/18 05:10:20;;;;;;;11.43;2.10;;;-2.30;99.90;;;;;;5089476;28;20028;-61
2022/01/18 05:12:48;;;;;;;20.90;3.97;;;-2.40;99.90;;;;;;5109228;28;20057;-61
2022/01/18 05:23:13;;;;;;;27.85;3.47;;;-2.50;99.90;;;;;;5089015;28;20081;-61
2022/01/18 05:25:38;;;;;;;21.55;2.80;;;-2.50;99.90;;;;;;5106382;28;20032;-61
2022/01/18 05:28:06;;;;;;;24.52;3.83;;;-2.40;99.90;;;;;;5108419;28;20028;-61
2022/01/18 05:30:31;;;;;;;24.05;2.67;;;-2.50;99.90;;;;;;5106873;28;20024;-60
2022/01/18 05:32:57;;;;;;;16.65;3.33;;;-2.50;99.90;;;;;;5108874;28;20027;-61
2022/01/18 05:35:23;;;;;;;17.38;3.38;;;-2.50;99.90;;;;;;5106570;28;20031;-61
2022/01/18 05:37:49;;;;;;;16.27;3.33;;;-2.60;99.90;;;;;;5090436;28;20032;-61
2022/01/18 05:40:16;;;;;;;16.08;2.13;;;-2.60;99.90;;;;;;5106704;28;20055;-61
2022/01/18 05:42:42;;;;;;;12.60;2.67;;;-2.60;99.90;;;;;;5087056;28;20028;-61
2022/01/18 05:45:09;;;;;;;13.93;2.20;;;-2.70;99.90;;;;;;5108747;28;20032;-61
2022/01/18 05:47:35;;;;;;;25.33;3.00;;;-2.70;99.90;;;;;;5106817;28;20038;-61
2022/01/18 05:50:02;;;;;;;27.45;3.13;;;-2.80;99.90;;;;;;5090497;28;20509;-61
2022/01/18 05:52:28;;;;;;;19.08;2.72;;;-2.80;99.90;;;;;;5088560;28;20110;-62
2022/01/18 05:54:53;;;;;;;17.77;2.63;;;-2.80;99.90;;;;;;5107789;28;20106;-61
2022/01/18 05:57:19;;;;;;;26.10;3.20;;;-2.90;99.90;;;;;;5106697;28;20036;-61
2022/01/18 05:59:46;;;;;;;20.65;3.05;;;-2.90;99.90;;;;;;5108551;28;20048;-61
2022/01/18 06:02:31;;;;;;;26.25;2.72;;;-3.00;99.90;;;;;;5090568;28;20032;-62
2022/01/18 06:07:41;;;;;;;18.17;2.92;;;-3.00;99.90;;;;;;5107099;28;20034;-61
2022/01/18 06:10:06;;;;;;;14.85;2.97;;;-3.10;99.90;;;;;;5108310;28;20114;-61
2022/01/18 06:12:32;;;;;;;14.77;2.20;;;-3.00;99.90;;;;;;5087744;28;20024;-61
2022/01/18 06:14:58;;;;;;;10.18;2.50;;;-3.00;99.90;;;;;;5107853;28;20020;-61
2022/01/18 06:17:24;;;;;;;22.15;3.20;;;-2.90;99.90;;;;;;5106690;28;20480;-62
2022/01/18 06:19:50;;;;;;;11.88;3.17;;;-2.90;99.90;;;;;;5108039;28;20051;-62
2022/01/18 06:22:15;;;;;;;11.43;2.60;;;-2.90;99.90;;;;;;5089856;28;20028;-62
2022/01/18 06:24:41;;;;;;;24.10;3.35;;;-2.90;99.90;;;;;;5107623;28;20063;-62
2022/01/18 06:27:07;;;;;;;22.10;2.42;;;-2.90;99.90;;;;;;5106178;28;20035;-62
2022/01/18 06:29:33;;;;;;;17.17;2.95;;;-2.90;99.90;;;;;;5107183;28;20122;-61
2022/01/18 06:31:59;;;;;;;21.58;2.65;;;-2.90;99.90;;;;;;5091937;28;20116;-61
2022/01/18 06:34:24;;;;;;;21.15;3.13;;;-3.00;99.90;;;;;;5107528;28;20063;-61
2022/01/18 06:36:50;;;;;;;18.00;2.85;;;-3.00;99.90;;;;;;5106383;28;20023;-61
2022/01/18 06:39:18;;;;;;;20.40;3.28;;;-3.00;99.90;;;;;;5109455;28;20028;-61
2022/01/18 06:41:44;;;;;;;13.45;2.80;;;-2.90;99.90;;;;;;5098704;28;20103;-61
2022/01/18 06:44:10;;;;;;;20.98;2.70;;;-2.90;99.90;;;;;;5105322;28;20026;-61
2022/01/18 06:46:35;;;;;;;12.23;2.33;;;-2.90;99.90;;;;;;5106328;28;20220;-62
2022/01/18 06:49:01;;;;;;;18.35;2.38;;;-2.90;99.90;;;;;;5110557;28;20392;-62
2022/01/18 06:51:27;;;;;;;17.88;2.63;;;-2.90;99.90;;;;;;5108585;28;20111;-62
2022/01/18 06:53:52;;;;;;;13.45;2.28;;;-2.90;99.90;;;;;;5110271;28;20020;-61
2022/01/18 06:56:19;;;;;;;18.52;3.00;;;-2.80;99.90;;;;;;5107706;28;20398;-62
2022/01/18 06:58:45;;;;;;;18.70;2.97;;;-2.70;99.90;;;;;;5110120;28;20024;-62
2022/01/18 07:01:12;;;;;;;16.92;2.83;;;-2.70;99.90;;;;;;5107966;28;20034;-62
2022/01/18 07:03:39;;;;;;;14.48;2.90;;;-2.70;99.90;;;;;;5110196;28;20056;-62
2022/01/18 07:06:04;;;;;;;15.23;2.90;;;-2.60;99.90;;;;;;5108107;28;20031;-62
2022/01/18 07:08:30;;;;;;;16.73;2.40;;;-2.50;99.90;;;;;;5110207;28;20019;-61
2022/01/18 07:10:57;;;;;;;14.00;2.90;;;-2.50;99.90;;;;;;5107990;28;20019;-62
2022/01/18 07:13:22;;;;;;;19.15;3.10;;;-2.40;99.90;;;;;;5110082;28;20028;-61
2022/01/18 07:15:48;;;;;;;25.00;3.15;;;-2.30;99.90;;;;;;5108104;28;20027;-61
2022/01/18 07:18:14;;;;;;;18.92;3.40;;;-2.30;99.90;;;;;;5109437;28;20442;-61
2022/01/18 07:20:41;;;;;;;18.38;3.63;;;-2.20;99.90;;;;;;5107162;28;20062;-62
2022/01/18 07:23:08;;;;;;;13.55;2.17;;;-2.20;99.90;;;;;;5110264;28;20069;-62
2022/01/18 07:25:34;;;;;;;19.92;2.88;;;-2.10;99.90;;;;;;5107895;28;20031;-62
2022/01/18 07:27:59;;;;;;;11.10;2.35;;;-2.10;99.90;;;;;;5109919;28;20092;-62
2022/01/18 07:30:25;;;;;;;22.55;3.22;;;-2.00;99.90;;;;;;5107557;28;20031;-62
2022/01/18 07:32:50;;;;;;;19.15;3.00;;;-2.00;99.90;;;;;;5109849;28;20015;-62
2022/01/18 07:35:17;;;;;;;14.90;2.88;;;-1.90;99.90;;;;;;5109358;28;20036;-62
2022/01/18 07:37:43;;;;;;;14.57;3.00;;;-1.90;99.90;;;;;;5109715;28;20027;-61
2022/01/18 07:40:09;;;;;;;15.57;3.30;;;-1.80;99.90;;;;;;5108847;28;20067;-61
2022/01/18 07:42:34;;;;;;;17.45;2.78;;;-1.70;99.90;;;;;;5092499;28;20019;-61
2022/01/18 07:45:00;;;;;;;8.18;2.60;;;-1.60;99.90;;;;;;5109511;28;20506;-62
2022/01/18 07:47:26;;;;;;;16.83;2.80;;;-1.50;99.90;;;;;;5098613;28;20066;-61
2022/01/18 07:49:51;;;;;;;8.30;2.83;;;-1.40;99.90;;;;;;5109177;28;20032;-62
2022/01/18 07:52:17;;;;;;;29.02;3.88;;;-1.30;99.90;;;;;;5107445;28;20019;-60
2022/01/18 07:54:42;;;;;;;20.55;3.53;;;-1.30;99.90;;;;;;5108941;28;20035;-61
2022/01/18 07:57:08;;;;;;;22.63;3.47;;;-1.20;99.90;;;;;;5092004;28;20130;-62
2022/01/18 07:59:34;;;;;;;19.55;3.40;;;-1.10;99.90;;;;;;5108383;28;20083;-62
2022/01/18 08:01:59;;;;;;;24.90;3.05;;;-1.00;99.90;;;;;;5107310;28;20030;-63
2022/01/18 08:04:25;;;;;;;19.08;3.17;;;-0.90;99.90;;;;;;5109048;28;20061;-63
2022/01/18 08:06:50;;;;;;;15.48;2.83;;;-0.80;99.90;;;;;;5093832;28;20032;-63
2022/01/18 08:09:19;;;;;;;13.48;3.05;;;-0.70;99.90;;;;;;5108191;28;20036;-60
2022/01/18 08:11:46;;;;;;;21.77;3.45;;;-0.60;99.90;;;;;;5107359;28;20080;-61
2022/01/18 08:14:13;;;;;;;24.35;3.80;;;-0.50;99.90;;;;;;5109040;28;20046;-60
2022/01/18 08:16:48;;;;;;;25.50;4.35;;;-0.40;99.90;;;;;;5095737;28;20036;-61
2022/01/18 08:19:16;;;;;;;22.80;3.17;;;-0.30;99.90;;;;;;5098882;28;20554;-60
2022/01/18 08:21:42;;;;;;;24.83;3.45;;;-0.20;99.90;;;;;;5095138;28;20035;-61
2022/01/18 08:24:08;;;;;;;21.85;3.47;;;0.00;99.90;;;;;;5108334;28;20031;-61
2022/01/18 08:26:33;;;;;;;19.02;2.95;;;0.20;99.90;;;;;;5105793;28;20024;-59
2022/01/18 08:28:59;;;;;;;25.92;3.70;;;0.70;99.90;;;;;;5108334;28;20028;-61
2022/01/18 08:31:24;;;;;;;24.10;3.47;;;1.40;99.90;;;;;;5106276;28;20030;-62
2022/01/18 08:33:50;;;;;;;16.90;3.78;;;2.20;99.90;;;;;;5108571;28;20214;-62
2022/01/18 08:36:15;;;;;;;19.15;3.30;;;3.10;99.90;;;;;;5106277;28;20023;-61
2022/01/18 08:38:41;;;;;;;13.75;3.17;;;3.80;99.90;;;;;;5108434;28;20028;-61
2022/01/18 08:41:07;;;;;;;19.25;3.72;;;4.40;99.90;;;;;;5106543;28;20063;-61
2022/01/18 08:43:36;;;;;;;16.42;3.53;;;4.90;99.90;;;;;;5104271;28;20293;-60
2022/01/18 08:46:03;;;;;;;17.42;3.80;;;5.40;99.90;;;;;;5106426;28;20016;-61
2022/01/18 08:48:29;;;;;;;22.50;5.32;;;5.80;99.90;;;;;;5108374;28;20111;-62
2022/01/18 08:50:55;;;;;;;20.08;4.95;;;6.20;99.90;;;;;;5106052;28;20102;-62
2022/01/18 08:53:21;;;;;;;17.52;4.55;;;6.60;99.90;;;;;;5108089;28;20034;-62
2022/01/18 08:55:46;;;;;;;24.13;4.15;;;7.10;99.90;;;;;;5105842;28;20027;-63
2022/01/18 08:58:12;;;;;;;21.55;4.93;;;7.60;99.90;;;;;;5108335;28;20020;-63
2022/01/18 09:00:37;;;;;;;17.02;4.00;;;8.10;99.90;;;;;;5105728;28;20561;-65
2022/01/18 09:03:03;;;;;;;16.50;3.90;;;8.50;99.90;;;;;;5107696;28;20024;-66
2022/01/18 09:05:29;;;;;;;16.92;3.85;;;8.70;99.90;;;;;;5105936;28;20031;-67
2022/01/18 09:07:56;;;;;;;10.52;4.63;;;9.00;99.90;;;;;;5107862;28;20471;-66
2022/01/18 09:10:25;;;;;;;18.90;4.70;;;9.10;99.90;;;;;;5106225;28;20179;-65
2022/01/18 09:12:51;;;;;;;12.02;3.67;;;9.10;99.90;;;;;;5108059;28;20019;-65
2022/01/18 09:15:16;;;;;;;11.77;3.40;;;9.40;99.90;;;;;;5107805;28;20081;-66
2022/01/18 09:17:42;;;;;;;14.10;3.63;;;9.70;99.90;;;;;;5108634;28;20395;-65
2022/01/18 09:20:10;;;;;;;15.68;4.22;;;9.90;99.90;;;;;;5094260;28;20044;-66
2022/01/18 09:22:40;;;;;;;19.13;4.55;;;10.20;99.90;;;;;;5087598;28;20048;-67
2022/01/18 09:25:10;;;;;;;11.75;3.60;;;10.60;99.70;;;;;;5108111;28;20147;-65
2022/01/18 09:27:36;;;;;;;14.68;3.47;;;10.90;96.70;;;;;;5086390;28;20020;-65
2022/01/18 09:30:03;;;;;;;12.38;3.53;;;10.50;96.00;;;;;;5107397;28;20031;-65
2022/01/18 09:32:28;;;;;;;14.30;3.35;;;8.90;99.90;;;;;;5105642;28;20526;-65
2022/01/18 09:34:54;;;;;;;18.13;3.40;;;7.80;99.90;;;;;;5107411;28;20240;-64
2022/01/18 09:37:20;;;;;;;11.60;2.90;;;6.90;99.90;;;;;;5088570;28;20022;-63
2022/01/18 09:39:45;;;;;;;10.68;3.35;;;6.20;99.90;;;;;;5106891;28;20461;-65
2022/01/18 09:42:12;;;;;;;12.00;2.78;;;5.80;99.90;;;;;;5098796;28;20304;-64
2022/01/18 09:44:39;;;;;;;13.05;2.85;;;5.40;99.90;;;;;;5107226;28;20076;-64
2022/01/18 09:47:05;;;;;;;14.68;2.92;;;5.10;99.90;;;;;;5090669;28;20507;-65
2022/01/18 09:49:32;;;;;;;10.85;2.63;;;4.90;99.90;;;;;;5107170;28;20526;-61
2022/01/18 09:51:58;;;;;;;10.15;2.90;;;4.80;99.90;;;;;;5105592;28;20035;-63
2022/01/18 09:54:24;;;;;;;12.65;4.13;;;4.70;99.90;;;;;;5107648;28;20076;-64
2022/01/18 09:56:49;;;;;;;16.10;3.10;;;4.70;99.90;;;;;;5092543;28;20106;-63
2022/01/18 09:59:15;;;;;;;11.00;2.85;;;4.70;99.90;;;;;;5106676;28;20575;-65
2022/01/18 10:01:41;;;;;;;13.95;2.45;;;4.60;99.90;;;;;;5105774;28;20027;-63
2022/01/18 10:04:26;;;;;;;11.63;2.92;;;4.60;99.90;;;;;;5106956;28;20714;-63
2022/01/18 10:06:56;;;;;;;10.68;2.63;;;4.60;99.90;;;;;;5098721;28;20520;-64
2022/01/18 10:09:25;;;;;;;16.98;3.30;;;4.60;99.90;;;;;;5107337;28;20032;-64
2022/01/18 10:12:10;;;;;;;12.18;2.75;;;4.60;99.90;;;;;;5104769;28;20036;-65
2022/01/18 10:14:40;;;;;;;14.73;2.78;;;4.60;99.90;;;;;;5110912;28;20035;-64
2022/01/18 10:17:08;;;;;;;11.85;3.33;;;4.50;99.90;;;;;;5094279;28;20025;-64
2022/01/18 10:19:46;;;;;;;18.58;2.92;;;4.50;99.90;;;;;;5110506;28;20557;-64
2022/01/18 10:22:24;;;;;;;16.25;3.40;;;4.50;99.90;;;;;;5105225;28;20031;-62
2022/01/18 10:24:52;;;;;;;11.10;2.85;;;4.50;99.90;;;;;;5091225;28;20048;-63
2022/01/18 10:27:18;;;;;;;12.75;2.88;;;4.50;99.90;;;;;;5109000;28;20371;-65
2022/01/18 10:29:48;;;;;;;12.40;2.95;;;4.50;99.90;;;;;;5111313;28;20028;-63
2022/01/18 10:35:04;;;;;;;10.68;2.63;;;4.60;99.90;;;;;;5110700;28;20039;-64
2022/01/18 10:37:33;;;;;;;15.63;4.20;;;4.80;99.90;;;;;;5107794;28;20398;-64
2022/01/18 10:40:04;;;;;;;10.68;3.03;;;5.20;99.90;;;;;;5110592;28;20415;-64
2022/01/18 10:42:36;;;;;;;13.32;2.50;;;5.60;99.90;;;;;;5093639;28;20028;-64
2022/01/18 10:45:08;;;;;;;14.60;3.35;;;5.80;99.90;;;;;;5110657;28;20115;-63
2022/01/18 10:47:35;;;;;;;11.07;2.40;;;5.70;99.90;;;;;;5108933;28;20052;-65
2022/01/18 10:50:13;;;;;;;12.52;2.50;;;5.60;99.90;;;;;;5110954;28;20040;-62
2022/01/18 10:52:39;;;;;;;12.68;3.55;;;5.50;99.90;;;;;;5088783;28;20032;-62
2022/01/18 10:55:06;;;;;;;11.25;2.47;;;5.30;99.90;;;;;;5110061;28;20038;-62
2022/01/18 10:57:36;;;;;;;13.43;2.22;;;5.20;99.90;;;;;;5108256;28;20419;-63
2022/01/18 11:00:17;;;;;;;14.57;2.65;;;5.10;99.90;;;;;;5110499;28;20035;-64
2022/01/18 11:02:46;;;;;;;14.95;2.53;;;5.00;99.90;;;;;;5110625;28;20030;-63
2022/01/18 11:05:21;;;;;;;11.13;2.70;;;5.00;99.90;;;;;;5110551;28;20188;-64
2022/01/18 11:07:48;;;;;;;13.13;2.72;;;4.90;99.90;;;;;;5110707;28;20066;-63
2022/01/18 11:10:16;;;;;;;9.38;2.03;;;4.90;99.90;;;;;;5110130;28;20024;-63
2022/01/18 11:12:56;;;;;;;14.60;2.90;;;4.90;99.90;;;;;;5110152;28;20063;-64
2022/01/18 11:15:23;;;;;;;12.73;3.03;;;4.90;99.90;;;;;;5088834;28;20028;-64
2022/01/18 11:17:57;;;;;;;7.00;2.38;;;4.80;99.90;;;;;;5110444;28;20145;-64
2022/01/18 11:20:23;;;;;;;7.68;1.90;;;4.80;99.90;;;;;;5088873;28;20044;-64
2022/01/18 11:22:50;;;;;;;13.25;2.35;;;4.80;99.90;;;;;;5110101;28;20034;-65
2022/01/18 11:25:17;;;;;;;13.75;3.00;;;4.80;99.90;;;;;;5109117;28;20058;-63
2022/01/18 11:27:49;;;;;;;8.13;2.00;;;4.80;99.90;;;;;;5110055;28;20020;-63
2022/01/18 11:30:16;;;;;;;10.85;2.50;;;4.80;99.90;;;;;;5089668;28;20081;-66
2022/01/18 11:32:43;;;;;;;16.38;2.78;;;4.80;99.90;;;;;;5109706;28;20023;-63
2022/01/18 11:35:14;;;;;;;11.13;2.53;;;4.90;99.90;;;;;;5109748;28;20027;-63
2022/01/18 11:38:03;;;;;;;10.48;2.70;;;5.00;99.90;;;;;;5107854;28;20031;-64
2022/01/18 11:40:43;;;;;;;11.35;2.58;;;5.10;99.90;;;;;;5107783;28;20523;-64
2022/01/18 11:43:09;;;;;;;8.85;2.22;;;5.30;99.90;;;;;;5102139;28;20090;-63
2022/01/18 11:45:38;;;;;;;6.15;1.77;;;5.40;99.90;;;;;;5107352;28;20534;-63
2022/01/18 11:48:20;;;;;;;5.47;1.80;;;5.30;99.90;;;;;;5109940;28;20102;-62
2022/01/18 11:51:00;;;;;;;10.30;2.15;;;5.30;99.90;;;;;;5091571;28;20020;-62
2022/01/18 11:53:41;;;;;;;7.85;2.13;;;5.50;99.90;;;;;;5109545;28;20027;-64
2022/01/18 11:56:11;;;;;;;12.05;2.35;;;5.60;99.90;;;;;;5094456;28;20023;-64
2022/01/18 11:58:38;;;;;;;11.65;2.72;;;5.70;99.90;;;;;;5108468;28;20055;-65
2022/01/18 12:01:04;;;;;;;10.13;2.28;;;5.80;99.90;;;;;;5107474;28;20031;-62
2022/01/18 12:03:32;;;;;;;13.63;2.45;;;5.80;99.90;;;;;;5109868;28;20023;-63
2022/01/18 12:06:00;;;;;;;10.07;2.22;;;5.90;99.90;;;;;;5106712;28;20027;-63
2022/01/18 12:08:41;;;;;;;9.65;1.92;;;5.90;99.90;;;;;;5109432;28;20012;-62
2022/01/18 12:11:34;;;;;;;10.80;2.10;;;5.90;99.90;;;;;;5093809;28;20023;-63
2022/01/18 12:14:00;;;;;;;6.72;1.92;;;6.10;99.90;;;;;;5109365;28;20027;-63
2022/01/18 12:16:29;;;;;;;9.02;2.80;;;6.10;99.90;;;;;;5107009;28;20084;-62
2022/01/18 12:19:34;;;;;;;9.75;2.10;;;6.20;99.90;;;;;;5106692;28;20074;-62
2022/01/18 12:23:18;;;;;;;11.80;3.03;;;6.20;99.90;;;;;;5105150;28;20044;-62
2022/01/18 12:26:42;;;;;;;11.50;2.45;;;6.30;99.90;;;;;;5103877;28;20035;-62
2022/01/18 12:30:14;;;;;;;8.88;1.95;;;6.40;99.90;;;;;;5087908;28;20032;-62
2022/01/18 12:33:35;;;;;;;8.27;1.90;;;6.50;99.90;;;;;;5102148;28;20047;-62
2022/01/18 12:37:16;;;;;;;4.82;1.50;;;6.50;99.90;;;;;;5102779;28;20517;-62
2022/01/18 12:40:42;;;;;;;9.13;1.98;;;6.50;99.90;;;;;;5102006;28;20055;-62
2022/01/18 12:47:14;;;;;;;8.20;1.27;;;6.50;99.90;;;;;;5098407;28;19914;-62
2022/01/18 12:50:39;;;;;;;4.82;1.08;;;6.50;99.90;;;;;;5107615;28;20035;-62
2022/01/18 12:54:04;;;;;;;9.85;1.63;;;6.50;99.90;;;;;;5106549;28;20031;-62
2022/01/18 12:57:36;;;;;;;8.80;2.40;;;6.40;99.90;;;;;;5103594;28;20581;-64
2022/01/18 13:01:01;;;;;;;9.15;3.28;;;6.30;99.90;;;;;;5105653;28;20043;-63
2022/01/18 13:04:28;;;;;;;12.13;3.00;;;6.40;99.90;;;;;;5088194;28;20028;-64
2022/01/18 13:07:52;;;;;;;14.50;4.93;;;6.40;99.90;;;;;;5103518;28;20035;-64
2022/01/18 13:11:17;;;;;;;8.90;3.63;;;6.40;99.90;;;;;;5100319;28;20059;-63
2022/01/18 13:14:48;;;;;;;10.55;3.03;;;6.40;99.90;;;;;;5087762;28;20059;-64
2022/01/18 13:25:15;;;;;;;4.07;1.20;;;6.30;99.90;;;;;;5108189;28;20628;-64
2022/01/18 13:28:40;;;;;;;4.80;1.42;;;6.20;99.90;;;;;;5104003;28;20487;-64
2022/01/18 13:32:08;;;;;;;7.35;1.65;;;5.90;99.90;;;;;;5104971;28;20043;-63
2022/01/18 13:35:31;;;;;;;5.72;1.35;;;5.80;99.90;;;;;;5107267;28;20038;-64
2022/01/18 13:38:56;;;;;;;5.70;1.67;;;5.70;99.90;;;;;;5103897;28;20060;-64
2022/01/18 13:42:21;;;;;;;10.32;1.60;;;5.70;99.90;;;;;;5103855;28;20044;-64
2022/01/18 13:45:46;;;;;;;7.25;1.42;;;5.70;99.90;;;;;;5087517;28;20097;-64
2022/01/18 13:49:24;;;;;;;3.72;1.15;;;5.80;99.90;;;;;;5107005;28;20490;-63
2022/01/18 13:52:52;;;;;;;8.15;1.48;;;5.80;99.90;;;;;;5106818;28;20035;-62
2022/01/18 13:55:58;;;;;;;;;;;5.80;99.90;;;;;;5110375;28;20077;-63
2022/01/18 13:59:23;;;;;;;5.45;1.60;;;5.80;99.90;;;;;;5091430;28;19915;-64
2022/01/18 14:02:48;;;;;;;4.03;1.40;;;5.70;99.90;;;;;;5106447;28;20688;-63
2022/01/18 14:06:15;;;;;;;4.53;1.23;;;5.70;99.90;;;;;;5105926;28;20038;-61
2022/01/18 14:09:42;;;;;;;9.30;1.40;;;5.70;99.90;;;;;;5105752;28;20043;-64
2022/01/18 14:13:07;;;;;;;3.65;1.05;;;5.70;99.90;;;;;;5107808;28;20491;-64
2022/01/18 14:16:45;;;;;;;6.30;1.30;;;5.70;99.90;;;;;;5105636;28;20040;-65
2022/01/18 14:20:15;;;;;;;8.95;1.48;;;5.70;99.90;;;;;;5111356;28;20044;-64
2022/01/18 14:23:35;;;;;;;6.70;1.50;;;5.60;99.90;;;;;;5105778;28;20566;-63
2022/01/18 14:26:50;;;;;;;4.68;1.10;;;5.60;99.90;;;;;;5108231;28;20116;-64
2022/01/18 14:29:41;;;;;;;5.03;1.50;;;5.60;99.90;;;;;;5091891;28;20036;-64
2022/01/18 14:33:09;;;;;;;4.00;1.30;;;5.60;99.90;;;;;;5103323;28;20122;-64
2022/01/18 14:36:15;;;;;;;;;;;5.50;99.90;;;;;;5108677;28;20039;-63
2022/01/18 14:39:49;;;;;;;7.90;1.83;;;5.50;99.90;;;;;;5111622;28;19915;-64
2022/01/18 14:43:26;;;;;;;6.35;1.30;;;5.50;99.90;;;;;;5102584;28;20039;-63